Time;durP1;ratioP1;P1;durP2;ratioP2;P2;SDS_P1;SDS_P2;PMS_P1;PMS_P2;Temp;Humidity;BMP_temperature;BMP_pressure;BME280_temperature;BME280_humidity;BME280_pressure;Samples;Min_cycle;Max_cycle;Signal;HPM_P1;HPM_P2
2023/09/30 00:01:10;;;;;;;4.13;1.77;;;17.00;99.90;;;-141.84;70.78;20797.63;4978590;28;20314;-64
2023/09/30 00:03:39;;;;;;;5.72;1.52;;;17.10;99.90;;;-141.84;70.14;20789.50;4985354;28;20215;-64
2023/09/30 00:06:07;;;;;;;4.38;1.77;;;17.20;99.90;;;-141.84;70.10;20858.59;4986013;28;20265;-64
2023/09/30 00:08:35;;;;;;;4.25;1.65;;;17.20;99.90;;;-141.84;70.02;20876.91;4985665;28;20732;-64
2023/09/30 00:11:06;;;;;;;3.30;1.80;;;17.20;99.90;;;-141.84;71.30;20781.38;4978391;28;20239;-64
2023/09/30 00:13:35;;;;;;;4.35;1.77;;;17.10;99.90;;;-141.84;71.36;20858.59;4986043;28;20301;-64
2023/09/30 00:16:03;;;;;;;4.15;1.63;;;17.10;99.90;;;-141.84;71.29;20799.66;4985059;28;20258;-64
2023/09/30 00:18:32;;;;;;;2.83;1.65;;;17.10;99.90;;;-141.84;71.72;20826.09;4984980;28;20230;-63
2023/09/30 00:21:01;;;;;;;3.42;1.80;;;17.10;99.90;;;-141.84;72.59;20883.00;4977642;28;20265;-64
2023/09/30 00:23:29;;;;;;;4.78;1.58;;;17.10;99.90;;;-141.84;72.48;20826.09;4985380;28;20330;-64
2023/09/30 00:25:57;;;;;;;2.22;1.35;;;17.10;99.90;;;-141.84;72.22;20838.28;4985039;28;20579;-64
2023/09/30 00:28:25;;;;;;;3.25;1.65;;;17.10;99.90;;;-141.84;71.96;20856.56;4985297;28;20310;-64
2023/09/30 00:30:53;;;;;;;5.68;1.52;;;17.20;99.90;;;-141.84;71.21;20852.50;4972434;28;20232;-64
2023/09/30 00:33:22;;;;;;;4.50;1.65;;;17.20;99.90;;;-141.84;70.17;20883.00;4965836;28;20216;-64
2023/09/30 00:35:52;;;;;;;4.80;2.22;;;17.10;99.90;;;-141.84;70.97;20885.03;4972702;28;20639;-63
2023/09/30 00:38:22;;;;;;;3.45;1.77;;;17.10;99.90;;;-141.84;69.67;20909.44;4984401;28;20231;-63
2023/09/30 00:40:51;;;;;;;4.80;2.00;;;17.00;99.90;;;-141.84;70.73;20793.56;4978210;28;20602;-65
2023/09/30 00:43:20;;;;;;;5.50;2.40;;;17.00;99.90;;;-141.84;70.83;20850.47;4984599;28;20247;-63
2023/09/30 00:45:50;;;;;;;3.10;1.75;;;16.90;99.90;;;-141.84;70.36;20783.41;4982237;28;20207;-63
2023/09/30 00:48:18;;;;;;;6.07;1.85;;;16.90;99.90;;;-141.84;68.66;20854.53;4972510;28;20200;-63
2023/09/30 00:50:47;;;;;;;3.45;1.80;;;16.90;99.90;;;-141.84;68.51;20840.31;4973835;28;20274;-64
2023/09/30 00:53:16;;;;;;;3.75;2.03;;;16.90;99.90;;;-141.84;68.36;20878.94;4984142;28;20231;-64
2023/09/30 00:55:45;;;;;;;5.25;2.00;;;16.90;99.90;;;-141.84;68.06;20872.84;4984492;28;20266;-64
2023/09/30 00:58:14;;;;;;;4.53;2.00;;;16.90;99.90;;;-141.84;68.22;20870.81;4984960;28;20293;-63
2023/09/30 01:00:42;;;;;;;5.15;1.88;;;16.90;99.90;;;-141.84;68.45;20876.91;4984124;28;20251;-65
2023/09/30 01:03:12;;;;;;;5.32;2.05;;;16.90;99.90;;;-141.84;68.99;20840.31;4976669;28;20266;-64
2023/09/30 01:05:40;;;;;;;4.85;2.08;;;16.90;99.90;;;-141.84;68.99;20846.41;4984670;28;20717;-64
2023/09/30 01:08:08;;;;;;;4.90;1.90;;;16.80;99.90;;;-141.84;69.43;20799.66;4984510;28;20325;-63
2023/09/30 01:10:38;;;;;;;4.40;2.00;;;16.80;99.90;;;-141.84;70.22;20761.03;4984848;28;20260;-63
2023/09/30 01:13:06;;;;;;;6.43;1.95;;;16.60;99.90;;;-141.84;71.19;20744.78;4977083;28;20238;-64
2023/09/30 01:15:34;;;;;;;5.65;2.15;;;16.50;99.90;;;-141.84;71.73;20720.38;4984429;28;20662;-65
2023/09/30 01:18:03;;;;;;;3.38;2.08;;;16.40;99.90;;;-141.84;72.71;20702.09;4985381;28;20210;-64
2023/09/30 01:20:34;;;;;;;4.93;2.15;;;16.30;99.90;;;-141.84;73.65;20661.44;4981912;28;20322;-64
2023/09/30 01:23:04;;;;;;;3.22;1.90;;;16.20;99.90;;;-141.84;74.29;20667.53;4975428;28;20338;-64
2023/09/30 01:25:33;;;;;;;4.13;2.00;;;16.10;99.90;;;-141.84;72.36;20734.59;4984654;28;20234;-64
2023/09/30 01:28:06;;;;;;;4.35;1.75;;;16.20;99.90;;;-141.84;72.96;20685.81;4984563;28;20231;-64
2023/09/30 01:30:35;;;;;;;6.25;1.85;;;16.10;99.90;;;-141.84;74.09;20647.19;4985555;28;20214;-64
2023/09/30 01:33:03;;;;;;;5.78;2.10;;;16.00;99.90;;;-141.84;74.64;20675.66;4980361;28;20219;-64
2023/09/30 01:35:31;;;;;;;4.88;2.20;;;16.00;99.90;;;-141.84;74.27;20643.13;4986311;28;20233;-64
2023/09/30 01:38:00;;;;;;;5.80;2.08;;;16.00;99.90;;;-141.84;74.44;20620.78;4986317;28;20309;-64
2023/09/30 01:40:29;;;;;;;4.32;2.28;;;15.90;99.90;;;-141.84;74.45;20683.78;4986951;28;20302;-65
2023/09/30 01:42:57;;;;;;;5.28;2.38;;;16.00;99.90;;;-141.84;74.89;20602.47;4981374;28;20249;-63
2023/09/30 01:45:26;;;;;;;5.05;2.17;;;15.90;99.90;;;-141.84;75.58;20695.97;4988367;28;20306;-63
2023/09/30 01:47:54;;;;;;;6.10;2.42;;;15.90;99.90;;;-141.84;75.46;20663.47;4987122;28;20242;-63
2023/09/30 01:50:22;;;;;;;5.90;2.40;;;15.90;99.90;;;-141.84;74.96;20628.91;4987826;28;20270;-65
2023/09/30 01:52:50;;;;;;;6.32;2.90;;;15.90;99.90;;;-141.84;74.25;20659.38;4980607;28;20306;-64
2023/09/30 01:55:18;;;;;;;5.45;2.50;;;15.90;99.90;;;-141.84;73.15;20665.50;4987665;28;20708;-64
2023/09/30 01:57:48;;;;;;;4.43;2.55;;;16.00;99.90;;;-141.84;73.69;20647.19;4986919;28;20262;-64
2023/09/30 02:00:17;;;;;;;4.95;2.70;;;16.00;99.90;;;-141.84;73.50;20622.81;4987412;28;20227;-64
2023/09/30 02:02:45;;;;;;;6.68;2.70;;;15.90;99.90;;;-141.84;74.73;20580.13;4986373;28;20246;-65
2023/09/30 02:05:14;;;;;;;6.15;3.20;;;16.00;99.90;;;-141.84;75.05;20582.16;4987123;28;20300;-63
2023/09/30 02:07:43;;;;;;;8.30;2.88;;;15.70;99.90;;;-141.84;75.49;20541.50;4983608;28;20251;-63
2023/09/30 02:10:11;;;;;;;5.85;2.80;;;15.60;99.90;;;-141.84;74.73;20580.13;4985945;28;20251;-66
2023/09/30 02:12:39;;;;;;;9.75;3.95;;;15.50;99.90;;;-141.84;74.18;20606.53;4987251;28;20234;-65
2023/09/30 02:15:11;;;;;;;5.53;3.30;;;15.60;99.90;;;-141.84;74.54;20592.31;4979889;28;20204;-63
2023/09/30 02:17:39;;;;;;;9.05;3.22;;;15.50;99.90;;;-141.84;74.98;20515.06;4987522;28;20235;-64
2023/09/30 02:20:12;;;;;;;8.85;3.90;;;15.50;99.90;;;-141.84;75.97;20513.03;4987263;28;20235;-64
2023/09/30 02:22:41;;;;;;;6.57;3.03;;;15.30;99.90;;;-141.84;75.28;20531.31;4986872;28;20231;-63
2023/09/30 02:25:12;;;;;;;4.97;3.03;;;15.30;99.90;;;-141.84;75.93;20521.16;4980546;28;20342;-64
2023/09/30 02:27:42;;;;;;;5.97;3.63;;;15.20;99.90;;;-141.84;76.83;20484.56;4987493;28;20211;-64
2023/09/30 02:30:13;;;;;;;6.97;3.42;;;15.20;99.90;;;-141.84;75.77;20537.44;4987581;28;20219;-64
2023/09/30 02:32:45;;;;;;;5.63;3.13;;;15.20;99.90;;;-141.84;76.58;20537.44;4967104;28;20236;-64
2023/09/30 02:35:15;;;;;;;7.05;3.10;;;15.20;99.90;;;-141.84;75.52;20545.56;4966236;28;20244;-64
2023/09/30 02:37:44;;;;;;;5.70;2.95;;;15.30;99.90;;;-141.84;74.68;20551.66;4986563;28;20239;-64
2023/09/30 02:40:14;;;;;;;8.60;3.17;;;15.50;99.90;;;-141.84;74.74;20549.63;4986891;28;20231;-63
2023/09/30 02:42:43;;;;;;;7.70;3.35;;;15.40;99.90;;;-141.84;75.72;20527.25;4986829;28;20259;-65
2023/09/30 02:45:17;;;;;;;7.25;3.20;;;15.40;99.90;;;-141.84;75.07;20565.88;4981475;28;20294;-63
2023/09/30 02:47:45;;;;;;;6.97;3.00;;;15.40;99.90;;;-141.84;76.00;20492.72;4987135;28;20278;-63
2023/09/30 02:50:13;;;;;;;7.53;3.20;;;15.20;99.90;;;-141.84;76.39;20500.84;4986721;28;20240;-63
2023/09/30 02:52:42;;;;;;;5.43;3.17;;;15.20;99.90;;;-141.84;76.87;20482.53;4986473;28;20242;-64
2023/09/30 02:55:12;;;;;;;9.68;3.20;;;15.10;99.90;;;-141.84;76.12;20488.63;4980066;28;20293;-63
2023/09/30 02:57:40;;;;;;;4.85;2.90;;;15.10;99.90;;;-141.84;76.19;20474.41;4986327;28;20212;-64
2023/09/30 03:00:23;;;;;;;7.15;3.33;;;15.10;99.90;;;-141.84;77.11;20462.22;4987331;28;20239;-65
2023/09/30 03:02:53;;;;;;;5.75;3.22;;;15.00;99.90;;;-141.84;78.07;20407.34;4978785;28;20647;-63
2023/09/30 03:05:23;;;;;;;7.93;3.40;;;14.90;99.90;;;-141.84;77.85;20437.81;4986128;28;20235;-64
2023/09/30 03:07:51;;;;;;;7.22;3.63;;;14.80;99.90;;;-141.84;78.27;20401.22;4985919;28;20323;-64
2023/09/30 03:10:23;;;;;;;7.95;3.63;;;14.80;99.90;;;-141.84;77.54;20395.13;4986085;28;20589;-64
2023/09/30 03:12:52;;;;;;;7.22;3.60;;;14.80;99.90;;;-141.84;78.59;20405.31;4978881;28;20615;-63
2023/09/30 03:15:22;;;;;;;5.82;3.45;;;14.60;99.90;;;-141.84;79.25;20370.75;4986765;28;20218;-63
2023/09/30 03:17:50;;;;;;;8.93;3.85;;;14.50;99.90;;;-141.84;79.22;20319.94;4986037;28;20231;-64
2023/09/30 03:20:21;;;;;;;8.93;4.00;;;14.50;99.90;;;-141.84;79.29;20350.41;4997637;28;20359;-64
2023/09/30 03:22:49;;;;;;;8.57;3.97;;;14.40;99.90;;;-141.84;80.28;20348.38;4998033;28;20246;-64
2023/09/30 03:25:20;;;;;;;7.07;3.70;;;14.40;99.90;;;-141.84;81.23;20297.56;5005430;28;20258;-64
2023/09/30 03:27:49;;;;;;;6.75;3.47;;;14.30;99.90;;;-141.84;81.53;20271.16;4994859;28;20215;-64
2023/09/30 03:30:19;;;;;;;7.18;3.85;;;14.20;99.90;;;-141.84;81.91;20240.66;4986700;28;20207;-65
2023/09/30 03:32:50;;;;;;;6.40;3.75;;;14.10;99.90;;;-141.84;82.51;20289.44;4980189;28;20266;-63
2023/09/30 03:35:18;;;;;;;8.93;3.90;;;14.10;99.90;;;-141.84;83.04;20224.41;4985178;28;20231;-64
2023/09/30 03:37:48;;;;;;;11.38;4.20;;;13.90;99.90;;;-141.84;81.91;20246.75;4984304;28;20262;-64
2023/09/30 03:40:18;;;;;;;8.68;4.13;;;14.10;99.90;;;-141.84;82.46;20244.72;4985573;28;20252;-64
2023/09/30 03:42:50;;;;;;;6.88;4.20;;;14.00;99.90;;;-141.84;82.58;20220.34;4978570;28;20203;-64
2023/09/30 03:45:19;;;;;;;7.55;4.25;;;14.00;99.90;;;-141.84;82.97;20210.16;4985159;28;20226;-64
2023/09/30 03:47:50;;;;;;;6.07;3.97;;;14.00;99.90;;;-141.84;82.86;20204.06;4985780;28;20650;-64
2023/09/30 03:50:18;;;;;;;8.15;4.30;;;13.90;99.90;;;-141.84;82.76;20220.34;4985550;28;20711;-65
2023/09/30 03:52:47;;;;;;;7.45;4.30;;;14.00;99.90;;;-141.84;83.47;20228.47;4982410;28;20235;-63
2023/09/30 03:55:17;;;;;;;7.82;4.18;;;13.80;99.90;;;-141.84;84.18;20179.69;4985625;28;20234;-64
2023/09/30 03:57:51;;;;;;;7.50;4.20;;;;;;;-141.84;83.47;20193.91;4985596;28;21103;-65
2023/09/30 04:00:20;;;;;;;8.05;3.90;;;;;;;-141.84;84.00;20228.47;4985727;28;20726;-64
2023/09/30 04:02:54;;;;;;;7.18;4.10;;;;;;;-141.84;84.46;20171.56;4978882;28;20235;-63
2023/09/30 04:05:26;;;;;;;10.13;4.13;;;;;;;-141.84;82.97;20210.16;4985301;28;20234;-63
2023/09/30 04:07:55;;;;;;;8.43;4.40;;;;;;;-141.84;83.00;20181.72;4973984;28;20259;-64
2023/09/30 04:10:23;;;;;;;6.05;3.92;;;;;;;-141.84;83.03;20200.00;4984277;28;20237;-65
2023/09/30 04:12:52;;;;;;;8.27;4.00;;;;;;;-141.84;83.19;20191.88;4958691;28;20235;-64
2023/09/30 04:15:21;;;;;;;8.30;4.18;;;;;;;-141.84;83.41;20218.31;4972747;28;20351;-66
2023/09/30 04:17:51;;;;;;;7.95;4.10;;;;;;;-141.84;83.74;20197.97;4985333;28;20234;-64
2023/09/30 04:20:23;;;;;;;10.45;4.65;;;;;;;-141.84;83.15;20179.69;4985016;28;20289;-65
2023/09/30 04:22:57;;;;;;;8.90;4.38;;;;;;;-141.84;82.31;20193.91;4978426;28;20285;-63
2023/09/30 04:25:26;;;;;;;9.95;3.85;;;;;;;-141.84;81.90;20183.75;4985315;28;20235;-65
2023/09/30 04:27:55;;;;;;;8.20;4.10;;;;;;;-141.84;82.83;20177.66;4985129;28;20257;-63
2023/09/30 04:30:23;;;;;;;9.03;4.00;;;;;;;-141.84;83.45;20195.94;4984941;28;20215;-64
2023/09/30 04:32:54;;;;;;;5.67;3.67;;;;;;;-141.84;83.77;20177.66;4977082;28;20656;-64
2023/09/30 04:35:22;;;;;;;8.23;4.18;;;;;;;-141.84;83.18;20173.59;4983180;28;20246;-64
2023/09/30 04:37:51;;;;;;;6.23;3.83;;;;;;;-141.84;82.96;20155.28;4983913;28;20305;-64
2023/09/30 04:40:20;;;;;;;9.93;3.95;;;;;;;-141.84;82.30;20175.63;4984188;28;20235;-63
2023/09/30 04:42:49;;;;;;;7.43;3.72;;;;;;;-141.84;83.74;20161.38;4976187;28;20242;-64
2023/09/30 04:45:19;;;;;;;8.32;3.53;;;;;;;-141.84;82.81;20179.69;4985141;28;20234;-64
2023/09/30 04:47:50;;;;;;;7.90;3.63;;;;;;;-141.84;83.02;20112.59;4984434;28;20270;-63
2023/09/30 04:50:21;;;;;;;7.17;3.63;;;;;;;-141.84;83.68;20094.31;4983667;28;20231;-65
2023/09/30 04:52:51;;;;;;;5.90;3.80;;;;;;;-141.84;84.11;20094.31;4977896;28;20238;-63
2023/09/30 04:55:20;;;;;;;8.07;3.30;;;;;;;-141.84;84.03;20137.00;4984835;28;20726;-63
2023/09/30 04:57:49;;;;;;;6.90;3.33;;;;;;;-141.84;84.44;20120.75;4984487;28;20665;-64
2023/09/30 05:00:24;;;;;;;8.40;3.70;;;;;;;-141.84;84.55;20086.19;4984810;28;20746;-64
2023/09/30 05:02:53;;;;;;;7.60;3.38;;;;;;;-141.84;83.95;20110.56;4977548;28;20244;-64
2023/09/30 05:05:23;;;;;;;6.20;3.20;;;;;;;-141.84;84.57;20096.34;4986993;28;20235;-65
2023/09/30 05:07:52;;;;;;;9.52;3.92;;;;;;;-141.84;84.29;20112.59;4977994;28;20627;-63
2023/09/30 05:10:20;;;;;;;10.98;3.63;;;;;;;-141.84;83.37;20110.56;4972623;28;20250;-64
2023/09/30 05:12:48;;;;;;;9.13;3.35;;;13.40;99.90;;;-141.84;81.94;20124.81;4979917;28;20403;-64
2023/09/30 05:15:19;;;;;;;5.50;3.27;;;13.40;99.90;;;-141.84;83.02;20147.16;4986744;28;20221;-64
2023/09/30 05:17:49;;;;;;;8.40;3.80;;;13.40;99.90;;;-141.84;83.10;20082.13;4986449;28;20330;-65
2023/09/30 05:20:18;;;;;;;7.70;3.53;;;13.40;99.90;;;-141.84;82.92;20110.56;4997033;28;20226;-64
2023/09/30 05:22:48;;;;;;;8.20;3.80;;;13.40;99.90;;;-141.84;82.97;20120.75;5004266;28;20229;-64
2023/09/30 05:25:18;;;;;;;7.07;3.60;;;13.40;99.90;;;-141.84;83.06;20104.47;5003543;28;20313;-63
2023/09/30 05:27:48;;;;;;;11.67;3.87;;;13.40;99.90;;;-141.84;82.66;20143.09;5006618;28;20206;-64
2023/09/30 05:30:19;;;;;;;8.47;3.57;;;13.40;99.90;;;-141.84;82.65;20118.69;5006251;28;20210;-64
2023/09/30 05:32:48;;;;;;;5.47;3.40;;;13.40;99.90;;;-141.84;82.99;20110.56;4999522;28;20238;-65
2023/09/30 05:35:16;;;;;;;8.33;3.30;;;13.50;99.90;;;-141.84;82.54;20116.66;5003218;28;20226;-64
2023/09/30 05:37:47;;;;;;;7.78;3.95;;;13.50;99.90;;;-141.84;82.03;20139.03;4984154;28;20325;-64
2023/09/30 05:40:21;;;;;;;9.20;3.50;;;13.50;99.90;;;-141.84;80.62;20155.28;4978643;28;20327;-63
2023/09/30 05:42:53;;;;;;;6.30;3.20;;;13.60;99.90;;;-141.84;81.34;20143.09;4972185;28;20238;-63
2023/09/30 05:45:24;;;;;;;8.63;3.53;;;13.60;99.90;;;-141.84;81.11;20153.25;4977108;28;20238;-64
2023/09/30 05:47:53;;;;;;;6.67;3.40;;;13.60;99.90;;;-141.84;80.09;20175.63;4977899;28;20528;-64
2023/09/30 05:50:26;;;;;;;7.57;3.35;;;13.60;99.90;;;-141.84;80.62;20122.78;4996089;28;20231;-63
2023/09/30 05:52:56;;;;;;;7.67;3.83;;;13.60;99.90;;;-141.84;80.46;20137.00;4980403;28;20493;-63
2023/09/30 05:55:25;;;;;;;7.27;3.63;;;13.50;99.90;;;-141.84;80.80;20126.84;4976003;28;20322;-63
2023/09/30 05:57:55;;;;;;;8.10;3.57;;;13.50;99.90;;;-141.84;80.84;20147.16;4973714;28;20232;-64
2023/09/30 06:00:28;;;;;;;12.47;4.37;;;13.50;99.90;;;-141.84;80.30;20106.50;4977583;28;20259;-64
2023/09/30 06:02:58;;;;;;;9.77;3.80;;;13.50;99.90;;;-141.84;81.04;20114.63;4977492;28;20278;-63
2023/09/30 06:05:30;;;;;;;11.43;3.70;;;13.50;99.90;;;-141.84;80.17;20141.06;4977405;28;20232;-63
2023/09/30 06:08:04;;;;;;;6.60;3.10;;;13.40;99.90;;;-141.84;80.52;20120.75;4979495;28;20745;-64
2023/09/30 06:10:32;;;;;;;7.87;3.23;;;13.40;99.90;;;-141.84;80.25;20104.47;4986614;28;20223;-64
2023/09/30 06:13:02;;;;;;;8.02;3.15;;;13.30;99.90;;;-141.84;80.62;20082.13;4975981;28;20688;-60
2023/09/30 06:15:31;;;;;;;9.60;3.43;;;13.40;99.90;;;-141.84;80.12;20118.69;4975095;28;20220;-61
2023/09/30 06:18:00;;;;;;;8.63;2.95;;;13.30;99.90;;;-141.84;80.48;20094.31;4980263;28;20319;-60
2023/09/30 06:20:30;;;;;;;10.68;2.88;;;13.30;99.90;;;-141.84;80.97;20118.69;4977603;28;20290;-61
2023/09/30 06:23:01;;;;;;;7.23;3.33;;;13.40;99.90;;;-141.84;80.69;20114.63;4978972;28;20235;-62
2023/09/30 06:25:30;;;;;;;7.00;3.17;;;13.50;99.90;;;-141.84;79.82;20155.28;4986595;28;20741;-62
2023/09/30 06:27:58;;;;;;;7.07;3.13;;;13.60;99.90;;;-141.84;79.01;20183.75;4987573;28;20225;-60
2023/09/30 06:30:29;;;;;;;11.85;3.15;;;13.80;99.90;;;-141.84;77.71;20228.47;4987074;28;20816;-60
2023/09/30 06:33:00;;;;;;;7.28;2.83;;;14.00;99.90;;;-141.84;75.21;20283.34;4979400;28;20227;-63
2023/09/30 06:35:30;;;;;;;8.55;3.00;;;14.20;99.90;;;-141.84;74.38;20346.34;4986869;28;20595;-61
2023/09/30 06:38:01;;;;;;;10.10;3.47;;;14.30;99.90;;;-141.84;73.71;20334.16;4987183;28;20298;-61
2023/09/30 06:40:29;;;;;;;7.18;3.10;;;14.40;99.90;;;-141.84;73.06;20378.88;4984415;28;20503;-62
2023/09/30 06:42:57;;;;;;;9.40;4.03;;;14.50;99.90;;;-141.84;73.29;20397.16;4977790;28;20600;-61
2023/09/30 06:45:26;;;;;;;7.32;3.28;;;14.60;99.90;;;-141.84;73.21;20374.81;4985373;28;20281;-61
2023/09/30 06:47:55;;;;;;;9.35;3.83;;;14.70;99.90;;;-141.84;72.94;20439.84;4985031;28;20230;-61
2023/09/30 06:50:23;;;;;;;8.35;3.15;;;14.80;99.90;;;-141.84;71.09;20474.41;4996559;28;20234;-60
2023/09/30 06:52:52;;;;;;;7.22;2.85;;;14.90;99.90;;;-141.84;70.25;20500.84;4989520;28;20318;-61
2023/09/30 06:55:22;;;;;;;9.15;3.00;;;15.00;99.90;;;-141.84;71.51;20498.81;4985049;28;20322;-61
2023/09/30 06:57:50;;;;;;;8.90;3.05;;;15.00;99.90;;;-141.84;70.86;20445.94;4984354;28;20246;-60
2023/09/30 07:00:19;;;;;;;6.57;2.70;;;15.00;99.90;;;-141.84;71.41;20439.84;4985723;28;20242;-61
2023/09/30 07:02:47;;;;;;;9.70;3.30;;;15.00;99.90;;;-141.84;70.78;20452.06;4982013;28;20227;-61
2023/09/30 07:05:17;;;;;;;5.50;3.10;;;14.70;99.90;;;-141.84;70.28;20521.16;4982818;28;20630;-60
2023/09/30 07:07:45;;;;;;;7.38;2.90;;;15.00;99.90;;;-141.84;70.21;20508.97;4974790;28;20263;-62
2023/09/30 07:10:14;;;;;;;8.50;2.60;;;15.10;99.90;;;-141.84;70.20;20504.91;4965278;28;20578;-60
2023/09/30 07:12:43;;;;;;;5.40;2.70;;;15.20;99.90;;;-141.84;70.28;20502.88;4974989;28;20223;-61
2023/09/30 07:15:13;;;;;;;7.60;2.90;;;15.20;99.90;;;-141.84;70.29;20488.63;4980596;28;20208;-62
2023/09/30 07:17:43;;;;;;;8.00;2.90;;;15.20;99.90;;;-141.84;68.96;20578.09;4984604;28;20239;-60
2023/09/30 07:20:13;;;;;;;6.93;2.72;;;15.30;99.90;;;-141.84;69.33;20586.22;4993707;28;20258;-61
2023/09/30 07:22:42;;;;;;;8.05;3.00;;;15.30;99.90;;;-141.84;69.36;20523.19;5004320;28;20258;-60
2023/09/30 07:25:26;;;;;;;6.82;2.60;;;15.30;99.90;;;-141.84;68.37;20557.75;4994702;28;20243;-62
2023/09/30 07:27:56;;;;;;;8.57;3.00;;;15.40;99.90;;;-141.84;67.87;20574.00;4984165;28;20798;-62
2023/09/30 07:30:24;;;;;;;5.82;3.05;;;15.40;99.90;;;-141.84;69.15;20576.03;4984332;28;20204;-61
2023/09/30 07:32:52;;;;;;;6.63;2.83;;;15.40;99.90;;;-141.84;69.13;20543.53;4977110;28;20327;-61
2023/09/30 07:35:21;;;;;;;5.88;3.00;;;15.40;99.90;;;-141.84;69.76;20521.16;4990577;28;20241;-61
2023/09/30 07:37:52;;;;;;;6.15;2.47;;;15.40;99.90;;;-141.84;68.61;20622.81;5002849;28;20669;-61
2023/09/30 07:40:22;;;;;;;7.70;2.40;;;15.40;99.90;;;-141.84;68.80;20584.19;5000830;28;20282;-61
2023/09/30 07:42:51;;;;;;;5.18;2.90;;;15.40;99.90;;;-141.84;69.78;20555.72;4976701;28;20817;-59
2023/09/30 07:45:21;;;;;;;6.13;2.88;;;15.40;99.90;;;-141.84;68.41;20616.69;4983963;28;20235;-61
2023/09/30 07:47:50;;;;;;;12.02;3.10;;;15.50;99.90;;;-141.84;67.66;20651.25;4967649;28;20250;-61
2023/09/30 07:50:19;;;;;;;7.07;4.80;;;15.70;99.90;;;-141.84;66.19;20702.09;4992337;28;20245;-61
2023/09/30 07:52:47;;;;;;;5.93;2.80;;;15.90;99.90;;;-141.84;66.23;20746.81;5000922;28;20309;-61
2023/09/30 07:55:15;;;;;;;6.85;2.60;;;16.00;99.90;;;-141.84;65.22;20754.94;5003516;28;20233;-61
2023/09/30 07:57:46;;;;;;;7.07;2.42;;;16.20;99.90;;;-141.84;65.19;20797.63;5003832;28;20209;-64
2023/09/30 08:00:21;;;;;;;5.97;3.03;;;16.40;99.90;;;-141.84;64.26;20801.69;5003235;28;20257;-64
2023/09/30 08:02:51;;;;;;;7.07;2.72;;;16.60;99.90;;;-141.84;63.89;20791.53;4995913;28;20323;-64
2023/09/30 08:05:19;;;;;;;7.47;2.72;;;16.60;99.90;;;-141.84;63.70;20842.34;5003395;28;20245;-64
2023/09/30 08:07:47;;;;;;;7.97;2.63;;;16.50;99.90;;;-141.84;64.67;20767.13;4993023;28;20322;-63
2023/09/30 08:10:16;;;;;;;8.90;2.88;;;16.50;99.90;;;-141.84;64.67;20781.38;4964389;28;20258;-64
2023/09/30 08:12:48;;;;;;;6.10;2.55;;;16.50;99.90;;;-141.84;64.95;20785.44;4964096;28;20211;-64
2023/09/30 08:15:17;;;;;;;12.30;2.90;;;16.50;99.90;;;-141.84;65.77;20773.22;4970036;28;20672;-64
2023/09/30 08:17:45;;;;;;;8.30;2.45;;;16.40;99.90;;;-141.84;66.32;20720.38;4967305;28;20322;-64
2023/09/30 08:20:15;;;;;;;5.72;2.67;;;16.40;99.90;;;-141.84;66.03;20744.78;4984764;28;20257;-63
2023/09/30 08:22:44;;;;;;;7.20;3.00;;;16.30;99.90;;;-141.84;66.00;20740.69;5003582;28;20258;-65
2023/09/30 08:25:12;;;;;;;4.95;2.83;;;16.30;99.90;;;-141.84;66.53;20777.28;4998667;28;20262;-64
2023/09/30 08:27:41;;;;;;;9.48;2.70;;;16.30;99.90;;;-141.84;66.38;20752.91;5003636;28;20662;-64
2023/09/30 08:30:10;;;;;;;4.72;2.90;;;16.40;99.90;;;-141.84;65.01;20795.59;5003100;28;20245;-64
2023/09/30 08:32:39;;;;;;;7.18;2.38;;;16.50;99.90;;;-141.84;65.19;20791.53;5002781;28;20294;-64
2023/09/30 08:35:09;;;;;;;5.15;2.22;;;16.60;99.90;;;-141.84;63.87;20848.44;4995875;28;23668;-65
2023/09/30 08:37:39;;;;;;;6.75;2.40;;;16.60;99.90;;;-141.84;64.52;20826.09;5003300;28;20230;-64
2023/09/30 08:40:09;;;;;;;6.57;2.28;;;16.70;99.90;;;-141.84;63.67;20866.75;5001636;28;20317;-65
2023/09/30 08:42:41;;;;;;;7.15;2.35;;;16.70;99.90;;;-141.84;63.40;20826.09;4968327;28;20208;-64
2023/09/30 08:45:15;;;;;;;6.68;2.88;;;16.80;99.90;;;-141.84;64.07;20858.59;4967918;28;20213;-64
2023/09/30 08:47:44;;;;;;;5.50;2.47;;;16.80;99.90;;;-141.84;63.26;20903.34;4967663;28;20263;-63
2023/09/30 08:50:13;;;;;;;7.45;2.58;;;17.00;99.90;;;-141.84;63.74;20901.31;4989108;28;20238;-64
2023/09/30 08:52:46;;;;;;;5.85;2.63;;;17.00;99.90;;;-141.84;63.26;20868.78;5003427;28;20586;-64
2023/09/30 08:55:14;;;;;;;5.05;2.45;;;17.10;99.90;;;-141.84;62.56;20909.44;4982778;28;20735;-64
2023/09/30 08:57:43;;;;;;;5.85;2.47;;;17.10;99.90;;;-141.84;62.63;20915.53;4981266;28;20665;-64
2023/09/30 09:00:14;;;;;;;7.35;2.75;;;17.20;99.90;;;-141.84;62.39;20972.47;4983155;28;20234;-64
2023/09/30 09:02:43;;;;;;;7.25;2.72;;;17.30;99.90;;;-141.84;61.64;20976.53;4982924;28;20231;-63
2023/09/30 09:05:12;;;;;;;7.22;2.40;;;17.30;99.90;;;-141.84;61.83;20994.81;4978514;28;20247;-64
2023/09/30 09:07:42;;;;;;;9.57;2.45;;;17.40;99.90;;;-141.84;61.64;20984.66;4974932;28;20235;-63
2023/09/30 09:10:13;;;;;;;10.45;2.65;;;17.50;99.90;;;-141.84;60.21;21011.09;4983846;28;20235;-64
2023/09/30 09:12:44;;;;;;;5.82;2.70;;;17.60;99.90;;;-141.84;59.81;21031.41;4983810;28;20207;-65
2023/09/30 09:15:26;;;;;;;6.63;2.10;;;17.70;99.90;;;-141.84;60.35;21116.78;4978343;28;20619;-64
2023/09/30 09:17:55;;;;;;;8.52;2.63;;;17.80;99.90;;;-141.84;58.37;21135.09;4983333;28;20235;-64
2023/09/30 09:20:25;;;;;;;6.28;2.55;;;18.00;99.90;;;-141.84;59.71;21151.34;4994295;28;20245;-65
2023/09/30 09:22:58;;;;;;;10.50;2.45;;;18.20;99.90;;;-141.84;58.34;21167.63;4995437;28;20238;-65
2023/09/30 09:25:28;;;;;;;7.57;2.50;;;18.20;99.90;;;-141.84;58.39;21155.44;5002945;28;20269;-65
2023/09/30 09:27:56;;;;;;;5.97;1.98;;;18.20;99.90;;;-141.84;58.04;21110.69;5002450;28;20238;-64
2023/09/30 09:30:26;;;;;;;8.65;2.30;;;18.10;99.90;;;-141.84;59.04;21092.41;5002678;28;20218;-63
2023/09/30 09:33:03;;;;;;;6.03;2.35;;;18.00;99.90;;;-141.84;59.53;21041.56;4994609;28;20253;-64
2023/09/30 09:35:33;;;;;;;6.85;2.28;;;17.90;99.90;;;-141.84;59.54;21029.38;5002473;28;20293;-64
2023/09/30 09:38:04;;;;;;;4.13;1.88;;;17.70;99.90;;;-141.84;59.53;20998.88;4994572;28;20229;-63
2023/09/30 09:40:36;;;;;;;8.48;2.38;;;17.70;99.90;;;-141.84;58.89;21037.50;4982912;28;20236;-64
2023/09/30 09:43:05;;;;;;;8.88;2.40;;;17.80;99.90;;;-141.84;58.59;21059.88;4967391;28;20250;-64
2023/09/30 09:45:37;;;;;;;9.60;2.53;;;17.70;99.90;;;-141.84;59.97;20990.75;4982048;28;20208;-64
2023/09/30 09:48:07;;;;;;;7.22;2.30;;;17.50;99.90;;;-141.84;60.44;20952.13;4983471;28;20607;-64
2023/09/30 09:50:38;;;;;;;6.72;2.10;;;17.50;99.90;;;-141.84;59.81;21043.59;4996428;28;20227;-63
2023/09/30 09:53:07;;;;;;;6.97;2.60;;;17.50;99.90;;;-141.84;58.93;21120.88;4998785;28;20262;-64
2023/09/30 09:55:39;;;;;;;8.23;2.42;;;17.80;99.90;;;-141.84;56.54;21236.75;5006461;28;20230;-65
2023/09/30 09:58:10;;;;;;;7.88;2.33;;;18.20;99.90;;;-141.84;55.10;21322.13;5006101;28;20223;-64
2023/09/30 10:00:39;;;;;;;6.68;2.22;;;18.50;99.90;;;-141.84;54.50;21368.91;5005744;28;20288;-64
2023/09/30 10:03:08;;;;;;;9.00;2.20;;;18.90;99.90;;;-141.84;52.63;21501.06;4998471;28;20214;-64
2023/09/30 10:05:40;;;;;;;11.02;2.30;;;19.30;99.90;;;-141.84;51.46;21604.75;5005688;28;20230;-65
2023/09/30 10:08:13;;;;;;;8.30;2.42;;;19.60;99.90;;;-141.84;51.59;21582.38;4989285;28;20630;-63
2023/09/30 10:10:45;;;;;;;6.38;2.20;;;19.80;99.90;;;-141.84;51.92;21623.06;4966711;28;20238;-64
2023/09/30 10:13:56;;;;;;;4.63;2.08;;;19.90;99.90;;;-141.84;49.58;21688.13;4983933;28;20258;-63
2023/09/30 10:16:50;;;;;;;6.25;2.08;;;20.00;99.90;;;-141.84;51.48;21551.91;4985659;28;20302;-65
2023/09/30 10:19:22;;;;;;;8.95;2.50;;;19.70;99.90;;;-141.84;53.23;21438.03;4988517;28;20318;-65
2023/09/30 10:22:25;;;;;;;7.70;2.40;;;19.40;99.90;;;-141.84;52.39;21385.16;5005011;28;20316;-64
2023/09/30 10:24:56;;;;;;;5.70;2.35;;;19.10;99.90;;;-141.84;53.94;21314.00;4998117;28;20614;-64